Time;durP1;ratioP1;P1;durP2;ratioP2;P2;SDS_P1;SDS_P2;PMS_P1;PMS_P2;Temp;Humidity;BMP_temperature;BMP_pressure;BME280_temperature;BME280_humidity;BME280_pressure;Samples;Min_cycle;Max_cycle;Signal;HPM_P1;HPM_P2
2022/10/21 00:00:22;;;;;;;5.93;5.20;;;;;;;;;;5106399;27;20031;-64
2022/10/21 00:02:47;;;;;;;8.07;5.85;;;;;;;;;;5106279;27;20541;-64
2022/10/21 00:05:13;;;;;;;7.68;5.85;;;;;;;;;;5107476;27;20637;-64
2022/10/21 00:07:38;;;;;;;10.05;5.63;;;;;;;;;;5110937;27;20447;-66
2022/10/21 00:10:04;;;;;;;6.63;5.32;;;;;;;;;;5112298;27;20027;-64
2022/10/21 00:12:29;;;;;;;10.55;6.20;;;;;;;;;;5109540;27;20540;-64
2022/10/21 00:14:55;;;;;;;6.70;5.88;;;;;;;;;;5111881;27;20084;-64
2022/10/21 00:17:20;;;;;;;7.43;5.28;;;;;;;;;;5111859;27;20020;-65
2022/10/21 00:19:45;;;;;;;9.15;6.20;;;;;;;;;;5110585;27;20454;-65
2022/10/21 00:22:10;;;;;;;7.47;5.53;;;;;;;;;;5105469;27;20039;-64
2022/10/21 00:24:36;;;;;;;6.28;5.38;;;;;;;;;;5106585;27;20031;-64
2022/10/21 00:27:01;;;;;;;8.35;5.88;;;;;;;;;;5108734;27;20019;-64
2022/10/21 00:29:27;;;;;;;7.20;6.10;;;;;;;;;;5111832;27;20493;-64
2022/10/21 00:31:53;;;;;;;6.77;4.83;;;;;;;;;;5111474;27;20027;-64
2022/10/21 00:34:18;;;;;;;6.60;5.50;;;;;;;;;;5112242;27;20032;-65
2022/10/21 00:36:43;;;;;;;9.83;5.50;;;;;;;;;;5109777;27;20046;-65
2022/10/21 00:39:08;;;;;;;7.30;5.60;;;;;;;;;;5107151;27;20799;-65
2022/10/21 00:41:34;;;;;;;6.67;5.40;;;;;;;;;;5107711;27;20036;-64
2022/10/21 00:44:00;;;;;;;6.60;5.47;;;;;;;;;;5112294;27;20415;-65
2022/10/21 00:46:44;;;;;;;9.33;6.23;;;;;;;;;;5111021;27;20154;-65
2022/10/21 00:49:15;;;;;;;8.43;6.10;;;;;;;;;;5113089;27;20562;-65
2022/10/21 00:51:41;;;;;;;8.23;6.07;;;;;;;;;;5111629;27;20093;-65
2022/10/21 00:54:06;;;;;;;7.50;5.23;;;;;;;;;;5091449;27;20028;-64
2022/10/21 00:56:32;;;;;;;12.43;6.67;;;;;;;;;;5109530;27;20624;-64
2022/10/21 00:58:59;;;;;;;7.80;5.60;;;;;;;;;;5106554;27;20105;-65
2022/10/21 01:01:24;;;;;;;7.40;5.43;;;;;;;;;;5105653;27;20034;-64
2022/10/21 01:03:50;;;;;;;8.70;5.60;;;;;;;;;;5110456;27;20487;-65
2022/10/21 01:06:17;;;;;;;7.10;5.97;;;;;;;;;;5109772;27;20054;-64
2022/10/21 01:08:43;;;;;;;9.30;6.50;;;;;;;;;;5109719;27;20019;-64
2022/10/21 01:11:13;;;;;;;8.03;6.10;;;;;;;;;;5110601;27;20038;-64
2022/10/21 01:13:38;;;;;;;8.37;6.07;;;;;;;;;;5108007;27;20024;-64
2022/10/21 01:16:16;;;;;;;8.20;5.97;;;;;;;;;;5105342;27;20483;-65
2022/10/21 01:18:43;;;;;;;9.03;6.40;;;;;;;;;;5111595;27;20020;-64
2022/10/21 01:21:21;;;;;;;7.37;6.20;;;;;;;;;;5108647;27;20620;-64
2022/10/21 01:24:05;;;;;;;7.83;6.17;;;;;;;;;;5104545;27;20027;-64
2022/10/21 01:26:39;;;;;;;8.97;6.40;;;;;;;;;;5105619;27;20019;-64
2022/10/21 01:29:08;;;;;;;10.37;6.73;;;;;;;;;;5107655;27;20027;-64
2022/10/21 01:32:05;;;;;;;10.47;7.57;;;;;;;;;;5110665;27;20473;-64
2022/10/21 01:34:40;;;;;;;10.57;6.73;;;;;;;;;;5045645;27;20323;-65
2022/10/21 01:37:11;;;;;;;10.05;6.85;;;;;;;;;;5109347;27;20022;-65
2022/10/21 01:39:42;;;;;;;12.97;8.30;;;;;;;;;;5108845;27;20032;-64
2022/10/21 01:42:07;;;;;;;10.97;7.43;;;;;;;;;;5105575;27;20714;-64
2022/10/21 01:44:53;;;;;;;17.27;7.53;;;;;;;;;;5107651;27;20036;-67
2022/10/21 01:47:25;;;;;;;9.33;7.17;;;;;;;;;;5109932;27;20501;-64
2022/10/21 01:49:50;;;;;;;11.40;6.67;;;;;;;;;;5110113;27;20601;-64
2022/10/21 01:52:16;;;;;;;8.40;6.50;;;;;;;;;;5108976;27;20023;-64
2022/10/21 01:54:43;;;;;;;9.63;6.10;;;;;;;;;;5109428;27;20023;-64
2022/10/21 01:57:09;;;;;;;6.73;6.00;;;;;;;;;;5109400;27;20027;-64
2022/10/21 01:59:36;;;;;;;8.93;7.10;;;;;;;;;;5110235;27;20030;-64
2022/10/21 02:02:03;;;;;;;8.53;6.33;;;;;;;;;;5109618;27;20479;-64
2022/10/21 02:04:29;;;;;;;10.47;6.20;;;;;;;;;;5109732;27;20567;-64
2022/10/21 02:06:54;;;;;;;8.00;6.83;;;;;;;;;;5108207;27;20556;-64
2022/10/21 02:09:20;;;;;;;10.70;6.40;;;;;;;;;;5105681;27;20027;-64
2022/10/21 02:11:47;;;;;;;9.10;6.00;;;;;;;;;;5104029;27;20369;-64
2022/10/21 02:14:14;;;;;;;10.60;6.90;;;;;;;;;;5105311;27;20536;-64
2022/10/21 02:16:40;;;;;;;10.63;6.30;;;;;;;;;;5107984;27;20027;-64
2022/10/21 02:19:12;;;;;;;8.63;6.83;;;;;;;;;;5106165;27;20687;-69
2022/10/21 02:21:37;;;;;;;9.83;7.03;;;;;;;;;;5107286;27;20043;-67
2022/10/21 02:24:06;;;;;;;9.87;6.80;;;;;;;;;;5108508;27;20032;-67
2022/10/21 02:26:31;;;;;;;10.40;7.17;;;;;;;;;;5108310;27;20019;-67
2022/10/21 02:28:58;;;;;;;9.93;6.17;;;;;;;;;;5090041;28;20050;-70
2022/10/21 02:31:29;;;;;;;10.07;7.70;;;;;;;;;;5104775;28;20035;-68
2022/10/21 02:34:04;;;;;;;11.17;6.90;;;;;;;;;;5107383;27;20029;-68
2022/10/21 02:36:35;;;;;;;10.57;6.90;;;;;;;;;;5110401;28;20027;-67
2022/10/21 02:39:03;;;;;;;9.53;7.17;;;;;;;;;;5109344;27;20035;-69
2022/10/21 02:41:30;;;;;;;9.87;6.97;;;;;;;;;;5106389;28;20664;-70
2022/10/21 02:43:57;;;;;;;8.33;6.60;;;;;;;;;;5109938;27;20083;-69
2022/10/21 02:46:23;;;;;;;8.93;6.80;;;;;;;;;;5108796;28;20049;-70
2022/10/21 02:48:49;;;;;;;10.57;6.60;;;;;;;;;;5102881;28;20154;-69
2022/10/21 02:51:14;;;;;;;9.10;7.37;;;;;;;;;;5103531;28;20092;-70
2022/10/21 02:53:40;;;;;;;9.87;7.27;;;;;;;;;;5104937;28;20022;-68
2022/10/21 02:56:05;;;;;;;9.73;7.23;;;;;;;;;;5108526;28;20579;-69
2022/10/21 02:58:31;;;;;;;9.53;7.50;;;;;;;;;;5087955;28;20016;-69
2022/10/21 03:00:56;;;;;;;10.60;8.27;;;;;;;;;;5104421;28;20445;-70
2022/10/21 03:03:21;;;;;;;7.80;6.03;;;;;;;;;;5108805;28;20027;-69
2022/10/21 03:05:47;;;;;;;9.73;7.30;;;;;;;;;;5109240;28;20036;-68
2022/10/21 03:08:12;;;;;;;8.20;6.87;;;;;;;;;;5109456;27;20463;-68
2022/10/21 03:10:37;;;;;;;11.93;7.50;;;;;;;;;;5109718;28;20149;-70
2022/10/21 03:13:03;;;;;;;18.40;10.37;;;;;;;;;;5107846;27;20031;-68
2022/10/21 03:15:28;;;;;;;12.73;8.10;;;;;;;;;;5109847;28;20143;-69
2022/10/21 03:17:53;;;;;;;11.33;7.77;;;;;;;;;;5108534;27;20015;-65
2022/10/21 03:20:18;;;;;;;10.00;7.40;;;;;;;;;;5109161;28;20030;-70
2022/10/21 03:22:44;;;;;;;9.87;7.63;;;;;;;;;;5109047;27;20043;-68
2022/10/21 03:25:10;;;;;;;10.27;7.60;;;;;;;;;;5112234;27;20027;-69
2022/10/21 03:27:35;;;;;;;10.27;7.33;;;;;;;;;;5108335;27;20056;-68
2022/10/21 03:30:00;;;;;;;8.73;6.70;;;;;;;;;;5107059;27;20023;-66
2022/10/21 03:32:26;;;;;;;11.00;7.50;;;;;;;;;;5109751;27;20471;-68
2022/10/21 03:34:51;;;;;;;10.57;6.90;;;;;;;;;;5113214;27;20440;-68
2022/10/21 03:37:16;;;;;;;12.27;7.43;;;;;;;;;;5112565;27;20023;-67
2022/10/21 03:39:41;;;;;;;12.07;7.53;;;;;;;;;;5112137;27;20031;-68
2022/10/21 03:42:07;;;;;;;12.83;7.87;;;;;;;;;;5107708;27;20035;-69
2022/10/21 03:44:32;;;;;;;11.13;8.07;;;;;;;;;;5108265;27;20026;-70
2022/10/21 03:46:57;;;;;;;9.53;7.13;;;;;;;;;;5113141;27;20031;-67
2022/10/21 03:49:23;;;;;;;8.97;7.03;;;;;;;;;;5113889;27;20529;-69
2022/10/21 03:51:48;;;;;;;13.20;7.80;;;;;;;;;;5112797;27;20094;-68
2022/10/21 03:54:13;;;;;;;10.43;8.20;;;;;;;;;;5113131;27;20026;-69
2022/10/21 03:56:39;;;;;;;12.53;7.13;;;;;;;;;;5112041;27;20034;-67
2022/10/21 03:59:04;;;;;;;10.13;7.27;;;;;;;;;;5112988;27;20028;-69
2022/10/21 04:01:29;;;;;;;10.23;6.47;;;;;;;;;;5111754;27;20068;-68
2022/10/21 04:03:54;;;;;;;7.97;7.13;;;;;;;;;;5110385;27;20659;-68
2022/10/21 04:06:20;;;;;;;11.23;7.90;;;;;;;;;;5108077;27;20478;-70
2022/10/21 04:08:45;;;;;;;13.10;8.57;;;;;;;;;;5111004;27;20026;-67
2022/10/21 04:11:10;;;;;;;9.23;6.77;;;;;;;;;;5112667;27;20493;-69
2022/10/21 04:13:35;;;;;;;11.37;7.53;;;;;;;;;;5097509;27;20030;-68
2022/10/21 04:16:02;;;;;;;10.70;8.27;;;;;;;;;;5111707;27;20111;-67
2022/10/21 04:18:27;;;;;;;11.23;7.63;;;;;;;;;;5107724;27;20019;-69
2022/10/21 04:20:52;;;;;;;10.50;7.37;;;;;;;;;;5109464;27;20047;-66
2022/10/21 04:23:18;;;;;;;11.13;7.70;;;;;;;;;;5111660;27;20392;-67
2022/10/21 04:25:44;;;;;;;13.37;8.03;;;;;;;;;;5113953;27;20036;-69
2022/10/21 04:28:09;;;;;;;9.63;7.67;;;;;;;;;;5109948;27;20565;-69
2022/10/21 04:30:34;;;;;;;11.33;7.47;;;;;;;;;;5109051;27;20616;-69
2022/10/21 04:33:00;;;;;;;12.40;8.60;;;;;;;;;;5112160;27;20061;-67
2022/10/21 04:35:25;;;;;;;10.60;8.07;;;;;;;;;;5112689;27;20078;-68
2022/10/21 04:37:50;;;;;;;10.70;8.33;;;;;;;;;;5110277;27;20042;-67
2022/10/21 04:40:15;;;;;;;10.57;7.90;;;;;;;;;;5109845;27;20023;-66
2022/10/21 04:42:41;;;;;;;12.17;8.53;;;;;;;;;;5108828;27;20083;-68
2022/10/21 04:45:06;;;;;;;10.57;8.83;;;;;;;;;;5105934;27;20293;-68
2022/10/21 04:47:32;;;;;;;13.20;8.47;;;;;;;;;;5110031;27;20409;-69
2022/10/21 04:49:57;;;;;;;16.20;9.40;;;;;;;;;;5110931;27;20028;-69
2022/10/21 04:52:22;;;;;;;11.47;8.80;;;;;;;;;;5112067;27;20034;-67
2022/10/21 04:54:47;;;;;;;11.27;8.60;;;;;;;;;;5111336;27;20041;-68
2022/10/21 04:57:13;;;;;;;12.00;8.60;;;;;;;;;;5105667;27;20331;-68
2022/10/21 04:59:38;;;;;;;12.40;8.20;;;;;;;;;;5105595;27;20069;-68
2022/10/21 05:02:03;;;;;;;12.37;9.13;;;;;;;;;;5112693;27;20043;-68
2022/10/21 05:04:28;;;;;;;11.60;8.67;;;;;;;;;;5110575;27;20032;-68
2022/10/21 05:06:54;;;;;;;14.40;9.60;;;;;;;;;;5105188;27;20031;-72
2022/10/21 05:09:19;;;;;;;12.20;9.20;;;;;;;;;;5106821;27;20137;-62
2022/10/21 05:11:44;;;;;;;13.67;8.57;;;;;;;;;;5108076;27;20604;-61
2022/10/21 05:14:09;;;;;;;15.10;8.20;;;;;;;;;;5106442;27;20544;-69
2022/10/21 05:16:34;;;;;;;12.37;8.73;;;;;;;;;;5106599;27;20794;-68
2022/10/21 05:19:00;;;;;;;13.53;9.17;;;;;;;;;;5108043;27;20076;-67
2022/10/21 05:21:25;;;;;;;11.73;9.03;;;;;;;;;;5107432;27;20035;-67
2022/10/21 05:23:50;;;;;;;12.00;8.67;;;;;;;;;;5106630;27;20027;-68
2022/10/21 05:26:15;;;;;;;12.10;8.47;;;;;;;;;;5111526;27;20042;-68
2022/10/21 05:28:41;;;;;;;13.77;8.77;;;;;;;;;;5110504;27;20020;-67
2022/10/21 05:31:06;;;;;;;10.77;8.53;;;;;;;;;;5107053;27;20051;-67
2022/10/21 05:33:31;;;;;;;14.77;9.40;;;;;;;;;;5103985;27;20024;-68
2022/10/21 05:35:59;;;;;;;12.60;8.80;;;;;;;;;;5105818;27;20323;-68
2022/10/21 05:38:25;;;;;;;13.87;9.10;;;;;;;;;;5109244;27;20020;-67
2022/10/21 05:40:50;;;;;;;14.27;8.97;;;;;;;;;;5106282;27;20046;-68
2022/10/21 05:43:15;;;;;;;12.77;9.13;;;;;;;;;;5113720;27;20469;-65
2022/10/21 05:45:40;;;;;;;14.77;9.70;;;;;;;;;;5111324;27;20389;-64
2022/10/21 05:48:05;;;;;;;13.67;10.10;;;;;;;;;;5107742;27;20490;-63
2022/10/21 05:50:31;;;;;;;13.70;10.17;;;;;;;;;;5110018;27;20118;-68
2022/10/21 05:52:57;;;;;;;16.30;9.63;;;;;;;;;;5110009;27;20029;-61
2022/10/21 05:55:22;;;;;;;12.70;9.83;;;;;;;;;;5109137;27;20076;-60
2022/10/21 05:57:48;;;;;;;15.07;10.50;;;;;;;;;;5091012;27;20046;-61
2022/10/21 06:00:13;;;;;;;17.30;11.50;;;;;;;;;;5104348;27;20031;-62
2022/10/21 06:02:38;;;;;;;15.03;10.43;;;;;;;;;;5105996;27;20035;-62
2022/10/21 06:05:04;;;;;;;16.50;11.20;;;;;;;;;;5104928;27;20019;-60
2022/10/21 06:07:29;;;;;;;20.63;12.47;;;;;;;;;;5107254;27;20034;-60
2022/10/21 06:09:54;;;;;;;17.33;11.07;;;;;;;;;;5104808;27;20026;-60
2022/10/21 06:12:19;;;;;;;15.60;11.20;;;;;;;;;;5104594;27;20664;-60
2022/10/21 06:14:45;;;;;;;16.07;10.20;;;;;;;;;;5105694;27;20030;-61
2022/10/21 06:17:10;;;;;;;16.43;10.63;;;;;;;;;;5103962;27;20078;-59
2022/10/21 06:19:35;;;;;;;17.23;10.57;;;;;;;;;;5105303;27;20139;-61
2022/10/21 06:22:01;;;;;;;14.73;9.70;;;;;;;;;;5109556;27;20030;-60
2022/10/21 06:24:26;;;;;;;13.17;9.97;;;;;;;;;;5108859;27;20064;-60
2022/10/21 06:26:51;;;;;;;13.60;9.83;;;;;;;;;;5107838;27;20139;-59
2022/10/21 06:29:17;;;;;;;15.40;10.13;;;;;;;;;;5105188;28;20027;-62
2022/10/21 06:31:42;;;;;;;13.13;8.83;;;;;;;;;;5105041;28;20461;-61
2022/10/21 06:34:08;;;;;;;15.00;10.40;;;;;;;;;;5109294;27;20561;-60
2022/10/21 06:36:36;;;;;;;12.73;8.83;;;;;;;;;;5109589;28;20015;-60
2022/10/21 06:39:02;;;;;;;13.57;9.23;;;;;;;;;;5107049;28;20150;-61
2022/10/21 06:41:27;;;;;;;14.57;9.50;;;;;;;;;;5104069;28;20474;-61
2022/10/21 06:43:53;;;;;;;13.27;8.40;;;;;;;;;;5104772;27;20039;-60
2022/10/21 06:46:18;;;;;;;10.87;9.53;;;;;;;;;;5107945;28;20614;-61
2022/10/21 06:48:43;;;;;;;11.60;8.57;;;;;;;;;;5107435;28;20059;-61
2022/10/21 06:51:10;;;;;;;14.70;9.47;;;;;;;;;;5105171;28;20735;-61
2022/10/21 06:53:36;;;;;;;12.97;8.63;;;;;;;;;;5104065;28;20027;-62
2022/10/21 06:56:04;;;;;;;13.37;8.50;;;;;;;;;;5104729;28;20393;-61
2022/10/21 06:58:30;;;;;;;15.03;8.83;;;;;;;;;;5109425;27;20050;-60
2022/10/21 07:00:55;;;;;;;11.47;9.20;;;;;;;;;;5108076;27;20273;-61
2022/10/21 07:03:20;;;;;;;12.53;8.33;;;;;;;;;;5111598;27;20038;-60
2022/10/21 07:05:46;;;;;;;11.13;9.03;;;;;;;;;;5113245;27;20026;-60
2022/10/21 07:08:11;;;;;;;14.00;11.00;;;;;;;;;;5113312;27;20032;-64
2022/10/21 07:10:36;;;;;;;10.30;7.65;;;;;;;;;;5109653;27;20024;-73
2022/10/21 07:13:01;;;;;;;13.95;9.65;;;;;;;;;;5110410;27;20023;-70
2022/10/21 07:15:27;;;;;;;16.67;8.67;;;;;;;;;;5113906;27;20527;-69
2022/10/21 07:17:52;;;;;;;13.95;9.27;;;;;;;;;;5109434;27;20431;-70
2022/10/21 07:20:17;;;;;;;11.48;8.32;;;;;;;;;;5108160;27;20028;-71
2022/10/21 07:22:42;;;;;;;13.70;8.77;;;;;;;;;;5112716;27;20528;-71
2022/10/21 07:25:08;;;;;;;14.73;8.98;;;;;;;;;;5112484;27;20689;-68
2022/10/21 07:27:33;;;;;;;15.98;10.90;;;;;;;;;;5113314;27;20377;-69
2022/10/21 07:29:59;;;;;;;11.00;8.18;;;;;;;;;;5112611;27;20139;-69
2022/10/21 07:32:24;;;;;;;13.85;8.60;;;;;;;;;;5094129;27;20441;-70
2022/10/21 07:34:49;;;;;;;11.65;8.57;;;;;;;;;;5110592;27;20118;-71
2022/10/21 07:37:14;;;;;;;11.02;8.48;;;;;;;;;;5109278;27;20040;-71
2022/10/21 07:39:40;;;;;;;11.75;9.25;;;;;;;;;;5111078;27;20416;-70
2022/10/21 07:42:05;;;;;;;9.77;8.55;;;;;;;;;;5112339;27;20139;-72
2022/10/21 07:44:30;;;;;;;18.13;8.32;;;;;;;;;;5115376;27;20015;-71
2022/10/21 07:46:55;;;;;;;13.52;9.00;;;;;;;;;;5114243;27;20519;-71
2022/10/21 07:49:22;;;;;;;15.13;8.63;;;;;;;;;;5115216;27;20088;-71
2022/10/21 07:51:49;;;;;;;13.13;8.65;;;;;;;;;;5110084;27;20027;-71
2022/10/21 07:54:15;;;;;;;16.50;9.70;;;;;;;;;;5111178;27;20016;-70
2022/10/21 07:56:41;;;;;;;10.30;8.73;;;;;;;;;;5107652;27;20019;-73
2022/10/21 07:59:07;;;;;;;12.80;8.68;;;;;;;;;;5109895;27;20135;-70
2022/10/21 08:01:34;;;;;;;12.52;8.50;;;;;;;;;;5111683;27;20040;-67
2022/10/21 08:04:00;;;;;;;11.05;8.20;;;;;;;;;;5113024;27;20084;-72
2022/10/21 08:06:25;;;;;;;9.82;8.02;;;;;;;;;;5113850;27;20024;-70
2022/10/21 08:08:51;;;;;;;13.25;9.63;;;;;;;;;;5108321;27;20251;-72
2022/10/21 08:11:21;;;;;;;8.57;7.35;;;;;;;;;;5108464;27;20545;-71
2022/10/21 08:13:46;;;;;;;14.85;8.65;;;;;;;;;;5112358;27;20035;-68
2022/10/21 08:16:11;;;;;;;10.75;8.07;;;;;;;;;;5109572;27;20263;-69
2022/10/21 08:18:36;;;;;;;11.50;7.53;;;;;;;;;;5107729;27;20416;-69
2022/10/21 08:21:02;;;;;;;15.35;7.90;;;;;;;;;;5109517;27;20024;-69
2022/10/21 08:23:28;;;;;;;10.93;8.10;;;;;;;;;;5107476;27;20019;-71
2022/10/21 08:25:54;;;;;;;9.75;7.18;;;;;;;;;;5109924;27;20031;-71
2022/10/21 08:28:20;;;;;;;11.05;7.55;;;;;;;;;;5111539;27;20026;-66
2022/10/21 08:30:46;;;;;;;14.52;7.47;;;;;;;;;;5107882;27;20056;-73
2022/10/21 08:33:12;;;;;;;11.02;7.53;;;;;;;;;;5107301;27;20036;-74
2022/10/21 08:35:37;;;;;;;7.53;6.82;;;;;;;;;;5111537;27;20080;-73
2022/10/21 08:38:03;;;;;;;10.07;7.93;;;;;;;;;;5107041;27;20047;-67
2022/10/21 08:40:29;;;;;;;8.07;7.15;;;;;;;;;;5108370;27;20027;-71
2022/10/21 08:42:55;;;;;;;13.73;7.93;;;;;;;;;;5104256;27;20078;-71
2022/10/21 08:45:39;;;;;;;11.98;7.47;;;;;;;;;;5105023;27;20110;-73
2022/10/21 08:48:05;;;;;;;12.45;7.82;;;;;;;;;;5108807;27;20593;-69
2022/10/21 08:50:35;;;;;;;10.13;8.05;;;;;;;;;;5104476;27;20142;-73
2022/10/21 08:53:08;;;;;;;9.38;7.78;;;;;;;;;;5106909;27;20067;-72
2022/10/21 08:55:34;;;;;;;11.23;8.07;;;;;;;;;;5113465;27;20053;-70
2022/10/21 08:57:59;;;;;;;10.75;7.22;;;;;;;;;;5111372;27;20007;-74
2022/10/21 09:00:45;;;;;;;12.43;8.30;;;;;;;;;;5111224;27;20031;-72
2022/10/21 09:03:17;;;;;;;10.15;7.60;;;;;;;;;;5109884;27;20031;-72
2022/10/21 09:06:06;;;;;;;12.38;8.27;;;;;;;;;;5106920;27;20051;-73
2022/10/21 09:08:45;;;;;;;9.32;8.25;;;;;;;;;;5109985;27;20034;-72
2022/10/21 09:11:14;;;;;;;12.80;8.32;;;;;;;;;;5106210;27;20708;-73
2022/10/21 09:13:49;;;;;;;10.75;7.72;;;;;;;;;;5106958;27;20024;-73
2022/10/21 09:16:46;;;;;;;9.70;7.68;;;;;;;;;;5110507;27;20427;-71
2022/10/21 09:19:31;;;;;;;9.73;7.97;;;;;;;;;;5067329;27;20500;-69
2022/10/21 09:21:56;;;;;;;14.07;8.80;;;;;;;;;;5104672;27;20111;-69
2022/10/21 09:24:21;;;;;;;10.90;8.05;;;;;;;;;;5110617;27;20574;-72
2022/10/21 09:26:48;;;;;;;9.40;7.80;;;;;;;;;;5109256;27;20029;-70
2022/10/21 09:29:31;;;;;;;8.60;7.68;;;;;;;;;;5108616;27;20034;-69
2022/10/21 09:32:09;;;;;;;13.43;8.20;;;;;;;;;;5112496;27;20035;-69
2022/10/21 09:34:40;;;;;;;11.73;8.20;;;;;;;;;;5113358;27;20031;-70
2022/10/21 09:37:11;;;;;;;11.18;7.82;;;;;;;;;;5113021;27;20050;-71
2022/10/21 09:39:40;;;;;;;11.63;6.97;;;;;;;;;;5107839;27;20485;-72
2022/10/21 09:42:09;;;;;;;12.15;8.85;;;;;;;;;;5110545;27;20028;-72
2022/10/21 09:44:34;;;;;;;9.20;7.97;;;;;;;;;;5109476;27;20024;-71
2022/10/21 09:47:00;;;;;;;10.32;8.80;;;;;;;;;;5110030;27;20488;-72
2022/10/21 09:49:29;;;;;;;10.25;7.15;;;;;;;;;;5090922;28;20636;-74
2022/10/21 09:51:56;;;;;;;11.85;8.70;;;;;;;;;;5110461;27;20386;-76
2022/10/21 09:54:23;;;;;;;15.52;8.65;;;;;;;;;;5110200;27;20110;-72
2022/10/21 09:57:01;;;;;;;13.20;7.43;;;;;;;;;;5109575;27;20424;-73
2022/10/21 09:59:27;;;;;;;13.20;7.25;;;;;;;;;;5109531;27;20496;-72
2022/10/21 10:01:52;;;;;;;14.40;7.55;;;;;;;;;;5107274;27;20039;-72
2022/10/21 10:04:18;;;;;;;10.18;7.15;;;;;;;;;;5104123;27;20035;-68
2022/10/21 10:06:43;;;;;;;8.43;7.60;;;;;;;;;;5109819;27;20070;-62
2022/10/21 10:09:27;;;;;;;9.30;7.90;;;;;;;;;;5106734;27;20549;-70
2022/10/21 10:11:54;;;;;;;9.65;7.78;;;;;;;;;;5110034;27;20027;-66
2022/10/21 10:14:24;;;;;;;9.32;7.25;;;;;;;;;;5105055;27;20497;-72
2022/10/21 10:16:49;;;;;;;14.02;7.93;;;;;;;;;;5104410;27;20041;-73
2022/10/21 10:19:19;;;;;;;12.32;8.38;;;;;;;;;;5105787;27;20019;-72
2022/10/21 10:21:46;;;;;;;11.93;7.63;;;;;;;;;;5103490;28;20409;-70
2022/10/21 10:24:16;;;;;;;14.10;8.20;;;;;;;;;;5107053;27;20277;-71
2022/10/21 10:26:42;;;;;;;10.10;7.88;;;;;;;;;;5105673;27;20043;-71
2022/10/21 10:29:13;;;;;;;11.80;8.57;;;;;;;;;;5108811;27;20525;-64
2022/10/21 10:31:44;;;;;;;11.50;7.97;;;;;;;;;;5102273;27;20444;-65
2022/10/21 10:34:17;;;;;;;16.63;8.10;;;;;;;;;;5104048;28;20037;-71
2022/10/21 10:36:42;;;;;;;9.00;7.40;;;;;;;;;;5108667;28;20134;-69
2022/10/21 10:39:14;;;;;;;11.90;9.07;;;;;;;;;;5107683;28;20038;-71
2022/10/21 10:41:44;;;;;;;9.70;8.32;;;;;;;;;;5108707;28;20070;-71
2022/10/21 10:44:16;;;;;;;11.48;7.03;;;;;;;;;;5109124;28;20031;-72
2022/10/21 10:46:42;;;;;;;11.65;7.20;;;;;;;;;;5107738;28;20438;-72
2022/10/21 10:49:13;;;;;;;10.07;7.82;;;;;;;;;;5109745;28;20023;-69
2022/10/21 10:51:41;;;;;;;10.10;8.10;;;;;;;;;;5104224;27;20042;-73
2022/10/21 10:54:20;;;;;;;12.05;8.15;;;;;;;;;;5105984;27;20027;-73
2022/10/21 10:56:56;;;;;;;8.23;7.43;;;;;;;;;;5088412;28;20016;-72
2022/10/21 10:59:21;;;;;;;14.13;7.68;;;;;;;;;;5109145;28;20203;-73
2022/10/21 11:01:52;;;;;;;10.75;8.27;;;;;;;;;;5110786;28;20847;-69
2022/10/21 11:04:22;;;;;;;12.82;8.52;;;;;;;;;;5098252;28;20027;-70
2022/10/21 11:07:08;;;;;;;9.45;7.82;;;;;;;;;;5104525;28;20500;-74
2022/10/21 11:09:33;;;;;;;;;;;;;;;;;;5054409;28;20027;-70
2022/10/21 11:12:01;;;;;;;11.05;8.70;;;;;;;;;;5104725;27;19911;-71
2022/10/21 11:14:26;;;;;;;12.27;8.75;;;;;;;;;;5106419;27;20020;-70
2022/10/21 11:16:57;;;;;;;9.13;7.03;;;;;;;;;;5109877;28;20026;-74
2022/10/21 11:19:29;;;;;;;14.90;9.50;;;;;;;;;;5107950;28;20482;-73
2022/10/21 11:22:09;;;;;;;12.25;8.30;;;;;;;;;;5105738;28;20470;-74
2022/10/21 11:24:37;;;;;;;11.38;8.05;;;;;;;;;;5103835;28;20434;-73
2022/10/21 11:27:06;;;;;;;12.23;8.82;;;;;;;;;;5105697;27;20043;-69
2022/10/21 11:29:38;;;;;;;11.82;8.05;;;;;;;;;;5109232;28;20051;-72
2022/10/21 11:32:15;;;;;;;15.05;9.57;;;;;;;;;;5109015;28;20039;-68
2022/10/21 11:34:47;;;;;;;10.15;8.10;;;;;;;;;;5106821;28;20023;-68
2022/10/21 11:37:36;;;;;;;9.68;7.88;;;;;;;;;;5104562;27;20031;-69
2022/10/21 11:40:20;;;;;;;11.43;8.25;;;;;;;;;;5100850;27;20335;-68
2022/10/21 11:42:47;;;;;;;11.90;8.10;;;;;;;;;;5108083;28;20039;-67
2022/10/21 11:45:32;;;;;;;10.88;9.18;;;;;;;;;;5110177;27;20019;-68
2022/10/21 11:48:00;;;;;;;10.80;8.52;;;;;;;;;;5107004;27;20115;-65
2022/10/21 11:50:43;;;;;;;9.23;8.32;;;;;;;;;;5108605;27;20023;-66
2022/10/21 11:53:25;;;;;;;13.00;8.98;;;;;;;;;;5108265;27;20031;-62
2022/10/21 11:55:50;;;;;;;9.07;7.85;;;;;;;;;;5109485;27;20024;-64
2022/10/21 11:58:21;;;;;;;11.55;8.52;;;;;;;;;;5112290;27;20031;-66
2022/10/21 12:00:55;;;;;;;11.43;8.20;;;;;;;;;;5095527;27;20071;-64
2022/10/21 12:03:28;;;;;;;11.07;7.63;;;;;;;;;;5106719;27;20031;-63
2022/10/21 12:05:58;;;;;;;16.73;12.98;;;;;;;;;;5106814;27;20027;-66
2022/10/21 12:08:27;;;;;;;15.20;10.77;;;;;;;;;;5107912;27;20022;-64
2022/10/21 12:10:56;;;;;;;16.98;11.15;;;;;;;;;;5110829;27;20023;-62
2022/10/21 12:13:40;;;;;;;17.30;11.93;;;;;;;;;;5111160;27;20034;-67
2022/10/21 12:16:14;;;;;;;14.15;9.85;;;;;;;;;;5110942;27;20466;-65
2022/10/21 12:18:45;;;;;;;14.98;9.88;;;;;;;;;;5112432;27;20034;-64
2022/10/21 12:21:14;;;;;;;11.95;8.88;;;;;;;;;;5112357;27;20522;-65
2022/10/21 12:23:40;;;;;;;13.70;9.85;;;;;;;;;;5113335;27;20040;-63
2022/10/21 12:26:05;;;;;;;10.35;8.07;;;;;;;;;;5095858;27;20599;-63
2022/10/21 12:28:49;;;;;;;11.63;8.90;;;;;;;;;;5111803;27;20520;-63
2022/10/21 12:31:33;;;;;;;9.55;8.50;;;;;;;;;;5111300;27;20031;-63
2022/10/21 12:33:59;;;;;;;15.70;10.13;;;;;;;;;;5110963;27;20047;-63
2022/10/21 12:36:27;;;;;;;11.57;9.80;;;;;;;;;;5111454;27;20024;-65
2022/10/21 12:38:53;;;;;;;11.32;9.32;;;;;;;;;;5093578;27;20406;-63
2022/10/21 12:41:20;;;;;;;12.57;8.70;;;;;;;;;;5108230;27;20028;-62
2022/10/21 12:44:11;;;;;;;13.23;7.50;;;;;;;;;;5111895;27;20020;-65
2022/10/21 12:46:38;;;;;;;12.68;8.57;;;;;;;;;;5102948;27;20035;-64
2022/10/21 12:49:09;;;;;;;11.20;9.00;;;;;;;;;;5104727;27;20048;-64
2022/10/21 12:51:34;;;;;;;11.57;10.32;;;;;;;;;;5105940;27;20789;-67
2022/10/21 12:54:02;;;;;;;10.10;9.10;;;;;;;;;;5109270;27;20138;-66
2022/10/21 12:56:41;;;;;;;12.60;9.65;;;;;;;;;;5109850;27;20023;-67
2022/10/21 12:59:14;;;;;;;12.88;9.88;;;;;;;;;;5106671;27;20947;-65
2022/10/21 13:01:39;;;;;;;9.68;7.90;;;;;;;;;;5107524;27;20087;-67
2022/10/21 13:04:24;;;;;;;10.10;9.10;;;;;;;;;;5111947;27;20119;-67
2022/10/21 13:06:51;;;;;;;10.77;9.68;;;;;;;;;;5110217;27;20615;-67
2022/10/21 13:09:32;;;;;;;11.60;8.68;;;;;;;;;;5111153;27;20054;-61
2022/10/21 13:12:12;;;;;;;12.25;9.20;;;;;;;;;;5109838;27;20042;-68
2022/10/21 13:14:43;;;;;;;12.82;7.65;;;;;;;;;;5110973;27;20138;-66
2022/10/21 13:17:20;;;;;;;12.05;9.82;;;;;;;;;;5109169;27;20084;-66
2022/10/21 13:20:12;;;;;;;12.02;9.82;;;;;;;;;;5111230;27;20547;-65
2022/10/21 13:22:41;;;;;;;13.73;8.20;;;;;;;;;;5070255;28;20607;-66
2022/10/21 13:25:15;;;;;;;14.10;10.55;;;;;;;;;;5070292;28;20213;-65
2022/10/21 13:27:42;;;;;;;11.00;9.63;;;;;;;;;;5064248;28;20120;-66
2022/10/21 13:30:07;;;;;;;14.75;11.18;;;;;;;;;;5065180;28;20027;-65
2022/10/21 13:32:35;;;;;;;12.43;10.73;;;;;;;;;;5069864;28;20040;-62
2022/10/21 13:35:01;;;;;;;10.88;9.10;;;;;;;;;;5069691;28;20055;-60
2022/10/21 13:37:27;;;;;;;11.60;9.93;;;;;;;;;;5065685;28;20028;-66
2022/10/21 13:39:53;;;;;;;13.13;9.23;;;;;;;;;;5064826;28;20033;-63
2022/10/21 13:42:19;;;;;;;12.63;10.18;;;;;;;;;;5067719;28;20066;-66
2022/10/21 13:44:50;;;;;;;13.65;10.50;;;;;;;;;;5068489;28;21185;-64
2022/10/21 13:47:19;;;;;;;15.07;11.52;;;;;;;;;;5052040;28;20088;-64
2022/10/21 13:49:52;;;;;;;12.63;10.98;;;;;;;;;;5048866;28;20039;-65
2022/10/21 13:52:17;;;;;;;14.57;10.68;;;;;;;;;;5048452;28;20045;-63
2022/10/21 13:54:42;;;;;;;16.25;9.60;;;;;;;;;;5049749;28;20043;-62
2022/10/21 13:57:08;;;;;;;11.27;9.52;;;;;;;;;;5044915;28;20085;-62
2022/10/21 13:59:33;;;;;;;12.90;8.80;;;;;;;;;;5064627;28;20482;-60
2022/10/21 14:01:59;;;;;;;14.15;10.27;;;;;;;;;;5083821;28;20027;-60
2022/10/21 14:04:24;;;;;;;14.63;10.85;;;;;;;;;;5087683;28;20028;-60
2022/10/21 14:06:55;;;;;;;10.50;9.40;;;;;;;;;;5089269;28;20401;-62
2022/10/21 14:09:22;;;;;;;11.07;9.68;;;;;;;;;;5085366;28;20106;-62
2022/10/21 14:11:50;;;;;;;12.88;10.15;;;;;;;;;;5085152;28;20035;-61
2022/10/21 14:14:17;;;;;;;11.10;9.98;;;;;;;;;;5086630;28;20020;-61
2022/10/21 14:16:47;;;;;;;12.48;10.23;;;;;;;;;;5085564;28;20024;-60
2022/10/21 14:19:18;;;;;;;13.40;10.20;;;;;;;;;;5084785;28;20019;-61
2022/10/21 14:21:45;;;;;;;13.90;10.30;;;;;;;;;;5089057;28;20065;-61
2022/10/21 14:24:25;;;;;;;12.75;11.43;;;;;;;;;;5083904;28;20433;-62
2022/10/21 14:26:51;;;;;;;14.48;11.15;;;;;;;;;;5083430;28;20060;-61
2022/10/21 14:29:16;;;;;;;13.05;11.05;;;;;;;;;;5084463;28;20512;-62
2022/10/21 14:31:41;;;;;;;12.48;11.15;;;;;;;;;;5086501;28;20369;-62
2022/10/21 14:34:17;;;;;;;14.30;10.20;;;;;;;;;;5085153;28;20060;-63
2022/10/21 14:37:02;;;;;;;14.23;11.45;;;;;;;;;;5084029;28;20036;-60